Time;durP1;ratioP1;P1;durP2;ratioP2;P2;SDS_P1;SDS_P2;PMS_P1;PMS_P2;Temp;Humidity;BMP_temperature;BMP_pressure;BME280_temperature;BME280_humidity;BME280_pressure;Samples;Min_cycle;Max_cycle;Signal;HPM_P1;HPM_P2
2023/03/22 00:02:31;;;;;;;13.27;9.30;;;9.50;99.90;;;;;;7592785;19;20014;-75
2023/03/22 00:05:05;;;;;;;;;;;9.50;99.90;;;;;;7593393;19;20026;-73
2023/03/22 00:07:39;;;;;;;15.65;10.55;;;9.50;99.90;;;;;;7583094;19;20481;-73
2023/03/22 00:10:12;;;;;;;14.38;9.23;;;9.50;99.90;;;;;;7596293;19;20039;-75
2023/03/22 00:12:44;;;;;;;13.15;8.63;;;9.50;99.90;;;;;;7598040;19;21120;-76
2023/03/22 00:15:17;;;;;;;16.30;9.55;;;9.50;99.90;;;;;;7577853;19;20011;-75
2023/03/22 00:17:49;;;;;;;14.48;9.75;;;9.40;99.90;;;;;;7590616;19;20018;-75
2023/03/22 00:20:22;;;;;;;12.23;9.02;;;9.40;99.90;;;;;;7593135;19;20589;-75
2023/03/22 00:22:54;;;;;;;14.15;8.88;;;9.30;99.90;;;;;;7580543;19;20014;-74
2023/03/22 00:25:27;;;;;;;13.85;9.00;;;9.30;99.90;;;;;;7599611;19;20109;-75
2023/03/22 00:27:59;;;;;;;14.10;9.50;;;9.30;99.90;;;;;;7593548;19;20095;-74
2023/03/22 00:30:31;;;;;;;13.75;8.63;;;9.30;99.90;;;;;;7594654;19;20022;-74
2023/03/22 00:33:04;;;;;;;12.00;8.75;;;9.30;99.90;;;;;;7577257;19;20018;-73
2023/03/22 00:35:36;;;;;;;15.00;8.88;;;9.30;99.90;;;;;;7585155;19;20472;-74
2023/03/22 00:38:12;;;;;;;13.52;8.82;;;9.20;99.90;;;;;;7589005;19;20039;-74
2023/03/22 00:40:46;;;;;;;13.95;9.52;;;9.10;99.90;;;;;;7604749;19;20133;-74
2023/03/22 00:43:18;;;;;;;13.20;8.93;;;9.00;99.90;;;;;;7576763;19;20369;-74
2023/03/22 00:45:50;;;;;;;12.55;8.60;;;8.90;99.90;;;;;;7583810;19;20147;-74
2023/03/22 00:48:23;;;;;;;14.20;10.05;;;9.00;99.90;;;;;;7594169;19;20018;-74
2023/03/22 00:50:55;;;;;;;14.25;8.82;;;9.00;99.90;;;;;;7584912;19;20038;-75
2023/03/22 00:53:31;;;;;;;13.00;9.10;;;9.10;99.90;;;;;;7584871;19;20042;-75
2023/03/22 00:56:04;;;;;;;12.40;8.32;;;9.20;99.90;;;;;;7591155;19;20032;-75
2023/03/22 00:58:46;;;;;;;15.27;8.85;;;9.10;99.90;;;;;;7584505;19;20034;-75
2023/03/22 01:01:18;;;;;;;13.98;8.73;;;9.10;99.90;;;;;;7603089;19;20018;-73
2023/03/22 01:03:51;;;;;;;13.70;8.75;;;9.10;99.90;;;;;;7588022;19;20666;-73
2023/03/22 01:06:24;;;;;;;12.50;8.00;;;9.10;99.90;;;;;;7586504;19;20053;-76
2023/03/22 01:08:56;;;;;;;12.60;8.90;;;9.20;99.90;;;;;;7585938;19;20057;-73
2023/03/22 01:11:28;;;;;;;14.18;8.90;;;9.20;99.90;;;;;;7600663;19;20018;-77
2023/03/22 01:14:00;;;;;;;12.68;8.55;;;9.10;99.90;;;;;;7576617;19;20026;-76
2023/03/22 01:16:33;;;;;;;13.65;9.00;;;9.00;99.90;;;;;;7583932;19;20015;-76
2023/03/22 01:19:06;;;;;;;16.85;8.73;;;8.90;99.90;;;;;;7591332;19;20988;-76
2023/03/22 01:21:38;;;;;;;15.30;9.80;;;8.90;99.90;;;;;;7581978;19;20369;-75
2023/03/22 01:24:10;;;;;;;15.30;8.10;;;9.00;99.90;;;;;;7575477;19;20010;-73
2023/03/22 01:26:43;;;;;;;13.60;8.77;;;9.10;99.90;;;;;;7587354;19;21134;-75
2023/03/22 01:29:16;;;;;;;14.30;9.73;;;9.00;99.90;;;;;;7587473;19;20022;-75
2023/03/22 01:31:49;;;;;;;14.43;7.93;;;9.00;99.90;;;;;;7584627;19;20054;-76
2023/03/22 01:34:21;;;;;;;14.45;8.82;;;9.10;99.90;;;;;;7583562;19;20010;-74
2023/03/22 01:36:54;;;;;;;14.55;8.13;;;9.10;99.90;;;;;;7583518;19;20015;-73
2023/03/22 01:39:26;;;;;;;12.98;7.85;;;9.20;99.90;;;;;;7595566;19;20024;-73
2023/03/22 01:42:02;;;;;;;12.55;8.38;;;9.20;99.90;;;;;;7577865;19;20025;-76
2023/03/22 01:44:37;;;;;;;12.40;7.95;;;9.30;99.90;;;;;;7591108;19;20023;-75
2023/03/22 01:47:10;;;;;;;12.80;8.82;;;9.30;99.90;;;;;;7577152;19;20018;-76
2023/03/22 01:49:42;;;;;;;10.15;7.28;;;9.10;99.90;;;;;;7580794;19;20456;-76
2023/03/22 01:52:15;;;;;;;10.93;7.30;;;9.10;99.90;;;;;;7574249;19;20026;-73
2023/03/22 01:55:08;;;;;;;12.13;7.45;;;9.20;99.90;;;;;;7590400;19;20019;-74
2023/03/22 01:57:52;;;;;;;11.38;7.43;;;9.20;99.90;;;;;;7582095;19;20025;-76
2023/03/22 02:00:35;;;;;;;11.38;8.38;;;9.10;99.90;;;;;;7591123;19;20318;-74
2023/03/22 02:03:47;;;;;;;12.57;8.13;;;9.10;99.90;;;;;;7566643;19;20114;-73
2023/03/22 02:06:21;;;;;;;11.88;7.57;;;9.10;99.90;;;;;;7589466;19;20025;-73
2023/03/22 02:08:59;;;;;;;10.65;7.15;;;8.90;99.90;;;;;;7582981;19;20021;-73
2023/03/22 02:11:40;;;;;;;12.52;7.03;;;9.00;99.90;;;;;;7591097;19;20022;-73
2023/03/22 02:14:46;;;;;;;11.85;7.63;;;9.00;99.90;;;;;;7604206;19;20022;-73
2023/03/22 02:17:43;;;;;;;11.00;8.13;;;9.00;99.90;;;;;;7577785;19;20014;-74
2023/03/22 02:20:30;;;;;;;9.50;6.75;;;8.90;99.90;;;;;;7591559;19;20022;-76
2023/03/22 02:23:12;;;;;;;11.55;6.90;;;9.00;99.90;;;;;;7591534;19;20022;-75
2023/03/22 02:26:02;;;;;;;10.75;7.28;;;9.10;99.90;;;;;;7585992;19;20035;-76
2023/03/22 02:28:50;;;;;;;13.48;7.47;;;9.10;99.90;;;;;;7588733;19;20026;-76
2023/03/22 02:31:49;;;;;;;10.73;7.97;;;9.00;99.90;;;;;;7585113;19;20010;-75
2023/03/22 02:34:22;;;;;;;12.00;7.15;;;8.80;99.90;;;;;;7593169;19;20368;-75
2023/03/22 02:37:03;;;;;;;11.20;7.70;;;8.80;99.90;;;;;;7589762;19;20996;-75
2023/03/22 02:40:04;;;;;;;10.77;6.97;;;8.70;99.90;;;;;;7583184;19;20019;-75
2023/03/22 02:43:15;;;;;;;11.77;7.22;;;8.70;99.90;;;;;;7594460;19;20376;-72
2023/03/22 02:45:55;;;;;;;11.05;6.95;;;8.80;99.90;;;;;;7577191;19;20018;-72
2023/03/22 02:48:43;;;;;;;9.90;6.30;;;8.60;99.90;;;;;;7589800;19;20026;-72
2023/03/22 02:51:28;;;;;;;15.20;8.00;;;8.60;99.90;;;;;;7595038;19;20036;-72
2023/03/22 02:54:10;;;;;;;10.40;7.85;;;8.60;99.90;;;;;;7582672;19;20038;-72
2023/03/22 02:57:09;;;;;;;10.20;7.03;;;8.50;99.90;;;;;;7594124;19;20030;-72
2023/03/22 02:59:44;;;;;;;13.30;7.30;;;8.40;99.90;;;;;;7600143;19;20025;-72
2023/03/22 03:02:18;;;;;;;11.13;7.03;;;8.40;99.90;;;;;;7582096;19;20018;-72
2023/03/22 03:04:51;;;;;;;;;;;8.30;99.90;;;;;;7595110;19;20025;-72
2023/03/22 03:07:27;;;;;;;12.02;7.13;;;8.30;99.90;;;;;;7598810;19;20025;-72
2023/03/22 03:10:00;;;;;;;9.63;6.93;;;8.30;99.90;;;;;;7578792;19;20022;-72
2023/03/22 03:12:33;;;;;;;10.88;7.13;;;8.10;99.90;;;;;;7595853;19;20025;-74
2023/03/22 03:15:18;;;;;;;10.90;7.25;;;8.00;99.90;;;;;;7586202;19;20022;-75
2023/03/22 03:17:50;;;;;;;9.93;6.25;;;8.00;99.90;;;;;;7590077;19;20010;-75
2023/03/22 03:20:47;;;;;;;11.05;7.00;;;8.00;99.90;;;;;;7596227;19;20096;-77
2023/03/22 03:24:05;;;;;;;10.98;7.00;;;8.00;99.90;;;;;;7582383;19;20024;-71
2023/03/22 03:27:00;;;;;;;8.80;6.25;;;8.00;99.90;;;;;;7599372;19;20078;-70
2023/03/22 03:29:41;;;;;;;8.30;6.53;;;7.90;99.90;;;;;;7599380;19;20057;-71
2023/03/22 03:32:37;;;;;;;11.77;7.05;;;7.80;99.90;;;;;;7603405;19;20112;-71
2023/03/22 03:35:25;;;;;;;10.55;6.50;;;7.90;99.90;;;;;;7584413;19;20030;-71
2023/03/22 03:38:08;;;;;;;16.63;6.93;;;7.90;99.90;;;;;;7595901;19;20640;-72
2023/03/22 03:40:49;;;;;;;10.02;6.88;;;7.80;99.90;;;;;;7602942;19;20459;-72
2023/03/22 03:43:24;;;;;;;11.13;6.07;;;7.70;99.90;;;;;;7590198;19;20074;-74
2023/03/22 03:45:56;;;;;;;10.38;7.07;;;7.60;99.90;;;;;;7593708;19;20019;-74
2023/03/22 03:48:31;;;;;;;8.88;6.88;;;7.60;99.90;;;;;;7596478;19;20023;-74
2023/03/22 03:51:04;;;;;;;10.70;6.63;;;7.50;99.90;;;;;;7608086;19;20800;-74
2023/03/22 03:53:37;;;;;;;12.27;6.45;;;7.50;99.90;;;;;;7578586;19;20751;-75
2023/03/22 03:56:09;;;;;;;10.77;6.53;;;7.60;99.90;;;;;;7584175;19;20237;-75
2023/03/22 03:58:46;;;;;;;10.45;6.20;;;7.60;99.90;;;;;;7588696;19;20053;-75
2023/03/22 04:01:19;;;;;;;10.85;6.28;;;7.60;99.90;;;;;;7576370;19;20022;-75
2023/03/22 04:03:59;;;;;;;9.90;5.78;;;7.50;99.90;;;;;;7600411;19;20014;-75
2023/03/22 04:06:43;;;;;;;;;;;7.40;99.90;;;;;;7602384;19;20022;-72
2023/03/22 04:09:20;;;;;;;10.90;6.18;;;7.50;99.90;;;;;;7590891;19;19981;-72
2023/03/22 04:11:57;;;;;;;8.00;5.38;;;7.50;99.90;;;;;;7590268;19;20024;-72
2023/03/22 04:14:29;;;;;;;9.77;5.40;;;7.60;99.90;;;;;;7556793;19;20022;-73
2023/03/22 04:17:08;;;;;;;10.57;5.88;;;7.70;99.90;;;;;;7568419;19;20045;-72
2023/03/22 04:19:43;;;;;;;10.38;6.15;;;7.70;99.90;;;;;;7592699;19;20056;-73
2023/03/22 04:22:17;;;;;;;10.50;5.50;;;7.70;99.90;;;;;;7589118;19;21288;-73
2023/03/22 04:24:49;;;;;;;9.45;5.53;;;7.50;99.90;;;;;;7574785;19;20027;-72
2023/03/22 05:25:53;;;;;;;10.68;4.72;;;6.70;99.90;;;;;;7532598;19;20015;-76
2023/03/22 05:28:27;;;;;;;14.73;6.28;;;6.80;99.90;;;;;;7552258;19;20026;-76
2023/03/22 05:31:21;;;;;;;10.63;5.22;;;6.80;99.90;;;;;;7578232;19;20046;-75
2023/03/22 05:34:02;;;;;;;12.02;6.00;;;6.80;99.90;;;;;;7534313;19;20023;-73
2023/03/22 05:36:37;;;;;;;11.35;5.68;;;6.90;99.90;;;;;;7578553;19;20523;-70
2023/03/22 05:39:35;;;;;;;7.28;5.32;;;6.80;99.90;;;;;;7584470;19;20018;-75
2023/03/22 05:42:07;;;;;;;11.05;5.40;;;6.90;99.90;;;;;;7577746;19;20050;-71
2023/03/22 05:44:41;;;;;;;8.25;5.63;;;6.90;99.90;;;;;;7587544;19;21572;-71
2023/03/22 05:47:16;;;;;;;8.48;5.25;;;6.90;99.90;;;;;;7584243;19;20058;-71
2023/03/22 05:50:17;;;;;;;8.85;5.15;;;7.00;99.90;;;;;;7594294;19;20018;-74
2023/03/22 05:52:50;;;;;;;10.15;5.45;;;7.10;99.90;;;;;;7602376;19;20039;-74
2023/03/22 05:55:35;;;;;;;12.80;5.40;;;7.10;99.90;;;;;;7577951;19;20007;-74
2023/03/22 05:58:09;;;;;;;6.95;5.18;;;7.20;99.90;;;;;;7563442;19;20145;-73
2023/03/22 06:00:50;;;;;;;11.15;5.53;;;7.30;99.90;;;;;;7540360;19;20376;-74
2023/03/22 06:03:47;;;;;;;10.25;5.10;;;7.30;99.90;;;;;;7540363;19;20017;-73
2023/03/22 06:06:28;;;;;;;12.13;6.13;;;7.10;99.90;;;;;;7538052;19;20858;-73
2023/03/22 06:09:16;;;;;;;11.98;6.38;;;7.10;99.90;;;;;;7527348;19;20559;-73
2023/03/22 06:11:54;;;;;;;12.32;6.35;;;7.20;99.90;;;;;;7550345;19;20357;-74
2023/03/22 06:14:27;;;;;;;11.38;5.80;;;7.30;99.90;;;;;;7573242;19;20499;-73
2023/03/22 06:17:18;;;;;;;10.25;6.53;;;7.40;99.90;;;;;;7569871;19;20048;-73
2023/03/22 06:19:53;;;;;;;33.92;7.90;;;7.50;99.90;;;;;;7500288;19;20122;-74
2023/03/22 06:22:29;;;;;;;17.38;7.70;;;7.60;99.90;;;;;;7520316;19;20078;-76
2023/03/22 06:25:02;;;;;;;22.98;9.35;;;7.70;99.90;;;;;;7453675;19;20011;-75
2023/03/22 06:27:48;;;;;;;14.30;7.22;;;7.80;99.90;;;;;;7477811;19;20014;-75
2023/03/22 06:30:21;;;;;;;10.18;5.55;;;8.00;99.90;;;;;;7480504;19;20022;-74
2023/03/22 06:33:17;;;;;;;14.07;5.47;;;8.10;99.90;;;;;;7528102;19;20090;-75
2023/03/22 06:35:59;;;;;;;9.57;5.30;;;8.10;99.90;;;;;;7528506;19;20026;-76
2023/03/22 06:38:42;;;;;;;10.40;5.38;;;8.30;99.90;;;;;;7577557;19;20018;-77
2023/03/22 06:41:14;;;;;;;10.93;4.93;;;8.40;99.90;;;;;;7555894;19;20029;-76
2023/03/22 06:43:46;;;;;;;6.25;3.00;;;8.60;99.90;;;;;;7586587;19;20564;-76
2023/03/22 06:46:51;;;;;;;6.60;2.95;;;8.70;99.90;;;;;;7570850;19;20018;-76
2023/03/22 06:49:46;;;;;;;7.38;3.75;;;8.90;99.90;;;;;;7575308;19;20010;-76
2023/03/22 06:52:23;;;;;;;19.00;4.22;;;9.00;99.90;;;;;;7603702;19;20024;-75
2023/03/22 06:54:56;;;;;;;9.77;3.70;;;9.10;99.90;;;;;;7575878;19;20029;-76
2023/03/22 06:57:29;;;;;;;8.07;3.47;;;9.20;99.90;;;;;;7593296;19;20513;-76
2023/03/22 07:00:03;;;;;;;21.13;3.78;;;9.40;99.90;;;;;;7605170;19;20022;-74
2023/03/22 07:02:36;;;;;;;16.60;3.60;;;9.60;99.90;;;;;;7599487;19;20018;-76
2023/03/22 07:05:23;;;;;;;7.53;3.28;;;9.70;99.90;;;;;;7597327;19;20018;-76
2023/03/22 07:07:56;;;;;;;9.07;3.73;;;9.90;99.90;;;;;;7584791;19;21009;-76
2023/03/22 07:10:30;;;;;;;17.30;4.70;;;10.10;99.90;;;;;;7573562;19;20822;-76
2023/03/22 07:13:02;;;;;;;16.02;4.90;;;10.30;99.90;;;;;;7586792;19;20074;-77
2023/03/22 07:15:35;;;;;;;15.47;4.43;;;10.50;99.80;;;;;;7594035;19;20023;-77
2023/03/22 07:18:12;;;;;;;17.08;4.32;;;10.60;99.50;;;;;;7598353;19;20517;-77
2023/03/22 07:20:45;;;;;;;15.15;5.95;;;10.80;98.10;;;;;;7598760;19;21016;-77
2023/03/22 07:23:19;;;;;;;13.02;4.10;;;10.90;96.90;;;;;;7602444;19;20097;-77
2023/03/22 07:25:55;;;;;;;5.95;2.20;;;11.00;94.80;;;;;;7591443;19;20010;-75
2023/03/22 07:28:32;;;;;;;9.95;1.90;;;11.40;91.70;;;;;;7581483;19;20078;-75
2023/03/22 07:31:11;;;;;;;6.20;2.30;;;11.50;90.30;;;;;;7591141;19;20073;-75
2023/03/22 07:33:52;;;;;;;5.68;1.88;;;11.70;88.70;;;;;;7580330;19;20026;-75
2023/03/22 07:36:27;;;;;;;3.60;2.00;;;11.80;88.70;;;;;;7588535;19;20041;-74
2023/03/22 07:39:00;;;;;;;3.58;2.45;;;11.90;88.20;;;;;;7596071;19;20509;-76
2023/03/22 07:41:37;;;;;;;6.13;2.35;;;12.00;87.60;;;;;;7600615;19;20018;-75
2023/03/22 07:44:32;;;;;;;2.90;1.98;;;12.20;86.10;;;;;;7602635;19;20412;-75
2023/03/22 07:47:19;;;;;;;4.30;2.17;;;12.50;81.70;;;;;;7594293;19;20035;-75
2023/03/22 07:50:31;;;;;;;5.93;3.10;;;12.60;81.90;;;;;;7595807;19;20006;-75
2023/03/22 07:53:06;;;;;;;6.05;2.65;;;12.70;80.80;;;;;;7609016;19;20022;-76
2023/03/22 07:55:41;;;;;;;6.72;3.03;;;12.80;80.40;;;;;;7611658;19;20043;-76
2023/03/22 07:58:13;;;;;;;4.75;2.72;;;12.90;78.90;;;;;;7601943;19;20010;-76
2023/03/22 08:00:48;;;;;;;7.07;3.08;;;13.00;79.20;;;;;;7606956;19;20092;-76
2023/03/22 08:03:39;;;;;;;7.72;4.53;;;13.00;79.90;;;;;;7606440;19;20470;-76
2023/03/22 08:06:31;;;;;;;9.77;4.03;;;13.00;81.20;;;;;;7599050;19;20026;-76
2023/03/22 08:09:06;;;;;;;7.50;3.30;;;13.20;80.10;;;;;;7608791;19;20029;-76
2023/03/22 08:11:40;;;;;;;5.60;3.40;;;13.30;79.10;;;;;;7598444;19;20055;-76
2023/03/22 08:14:12;;;;;;;8.15;4.32;;;13.40;79.60;;;;;;7611181;19;20026;-76
2023/03/22 08:16:45;;;;;;;8.55;4.93;;;13.50;78.70;;;;;;7605497;19;20074;-76
2023/03/22 08:19:17;;;;;;;11.70;4.53;;;13.50;78.70;;;;;;7597970;19;20535;-76
2023/03/22 08:21:51;;;;;;;6.65;4.18;;;13.50;78.50;;;;;;7605497;19;20030;-76
2023/03/22 08:24:49;;;;;;;6.03;3.80;;;13.60;77.10;;;;;;7589701;19;20006;-76
2023/03/22 08:27:30;;;;;;;7.15;4.38;;;13.70;77.40;;;;;;7593476;19;20018;-77
2023/03/22 08:30:04;;;;;;;8.13;3.92;;;13.80;78.10;;;;;;7579179;19;20026;-76
2023/03/22 08:32:36;;;;;;;8.90;4.10;;;13.90;77.30;;;;;;7570014;19;20521;-76
2023/03/22 08:35:09;;;;;;;10.00;4.03;;;14.00;75.60;;;;;;7583814;19;20089;-76
2023/03/22 08:37:42;;;;;;;5.22;4.15;;;14.10;75.70;;;;;;7573539;19;20015;-76
2023/03/22 08:40:14;;;;;;;7.68;5.10;;;14.20;75.10;;;;;;7588055;19;20029;-76
2023/03/22 08:42:55;;;;;;;9.63;5.68;;;14.30;75.40;;;;;;7596408;19;20006;-76
2023/03/22 08:45:27;;;;;;;10.80;6.43;;;14.30;75.10;;;;;;7585811;19;20036;-75
2023/03/22 08:48:07;;;;;;;11.38;6.28;;;14.40;75.50;;;;;;7578832;19;20014;-75
2023/03/22 08:50:57;;;;;;;9.98;6.93;;;14.40;76.00;;;;;;7588555;19;20018;-76
2023/03/22 08:53:42;;;;;;;12.30;7.03;;;14.30;75.80;;;;;;7598560;19;20685;-75
2023/03/22 08:56:43;;;;;;;16.30;8.25;;;14.40;75.40;;;;;;7580145;19;20593;-76
2023/03/22 08:59:28;;;;;;;10.15;7.03;;;14.40;74.20;;;;;;7600634;19;20019;-75
2023/03/22 09:02:38;;;;;;;11.40;7.00;;;14.40;73.10;;;;;;7576640;19;20899;-75
2023/03/22 09:05:12;;;;;;;9.50;6.07;;;14.50;73.50;;;;;;7591261;19;20120;-76
2023/03/22 09:07:46;;;;;;;12.25;5.85;;;14.50;73.30;;;;;;7570209;19;20146;-76
2023/03/22 09:10:29;;;;;;;8.70;4.10;;;14.50;73.30;;;;;;7587656;19;20022;-76
2023/03/22 09:13:02;;;;;;;10.13;6.68;;;14.60;72.20;;;;;;7554649;19;20049;-76
2023/03/22 09:15:34;;;;;;;8.52;6.15;;;14.60;71.80;;;;;;7563718;19;20134;-76
2023/03/22 09:18:15;;;;;;;8.07;5.35;;;14.70;71.90;;;;;;7585750;19;20021;-76
2023/03/22 09:20:48;;;;;;;8.87;5.33;;;14.80;71.70;;;;;;7561510;19;20010;-75
2023/03/22 09:23:23;;;;;;;11.82;6.47;;;15.00;70.40;;;;;;7572644;19;20015;-76
2023/03/22 09:25:55;;;;;;;9.30;5.00;;;15.10;70.30;;;;;;7578864;19;20010;-76
2023/03/22 09:28:30;;;;;;;10.02;5.93;;;15.10;70.70;;;;;;7574657;19;20086;-77
2023/03/22 09:31:08;;;;;;;10.30;5.47;;;15.00;70.10;;;;;;7587850;19;20693;-75
2023/03/22 09:33:42;;;;;;;7.75;5.40;;;15.10;70.10;;;;;;7576950;19;20011;-75
2023/03/22 09:36:14;;;;;;;10.90;5.70;;;15.20;69.60;;;;;;7573821;19;20032;-76
2023/03/22 09:38:48;;;;;;;9.70;5.38;;;15.10;70.30;;;;;;7591738;19;20023;-75
2023/03/22 09:41:35;;;;;;;9.07;5.53;;;15.20;69.30;;;;;;7556544;19;20808;-74
2023/03/22 09:44:14;;;;;;;8.38;5.28;;;15.20;69.10;;;;;;7567095;19;20006;-75
2023/03/22 09:46:50;;;;;;;8.98;5.57;;;15.30;69.10;;;;;;7576929;19;20025;-74
2023/03/22 09:49:28;;;;;;;7.78;5.60;;;15.30;69.10;;;;;;7577925;19;20296;-75
2023/03/22 09:52:00;;;;;;;16.40;5.88;;;15.30;68.70;;;;;;7588394;19;20712;-77
2023/03/22 09:54:39;;;;;;;9.15;5.97;;;15.40;69.60;;;;;;7569436;19;20022;-74
2023/03/22 09:57:31;;;;;;;9.30;6.05;;;15.40;68.40;;;;;;7592218;19;20018;-74
2023/03/22 10:00:19;;;;;;;8.80;5.50;;;15.50;68.80;;;;;;7580047;19;20314;-75
2023/03/22 10:03:13;;;;;;;13.18;5.85;;;15.50;68.20;;;;;;7596792;19;20090;-77
2023/03/22 10:05:56;;;;;;;9.63;4.55;;;15.50;68.80;;;;;;7576769;19;20053;-76
2023/03/22 10:08:49;;;;;;;8.17;5.97;;;15.60;68.40;;;;;;7576023;19;20014;-76
2023/03/22 10:11:51;;;;;;;5.57;4.43;;;15.60;68.20;;;;;;7565258;19;21652;-76
2023/03/22 10:14:33;;;;;;;10.02;4.63;;;15.70;68.70;;;;;;7581324;19;20029;-75
2023/03/22 10:17:13;;;;;;;7.70;4.80;;;15.80;68.80;;;;;;7573804;19;20590;-75
2023/03/22 10:20:35;;;;;;;8.07;4.53;;;16.00;68.30;;;;;;7592878;19;20014;-75
2023/03/22 10:23:22;;;;;;;6.38;4.38;;;16.10;67.40;;;;;;7581956;19;20677;-74
2023/03/22 10:25:56;;;;;;;7.22;4.70;;;16.10;66.30;;;;;;7589348;19;20014;-75
2023/03/22 10:28:48;;;;;;;;;;;16.20;65.90;;;;;;7590234;19;20119;-75
2023/03/22 10:31:21;;;;;;;8.15;4.05;;;16.30;65.70;;;;;;7593543;19;20846;-76
2023/03/22 10:33:58;;;;;;;6.73;4.20;;;16.40;65.50;;;;;;7583234;19;20668;-75
2023/03/22 10:36:34;;;;;;;11.23;4.43;;;16.50;64.50;;;;;;7590132;19;20839;-75
2023/03/22 10:39:30;;;;;;;6.32;4.55;;;16.50;64.30;;;;;;7559626;19;20049;-74
2023/03/22 10:42:07;;;;;;;6.05;3.83;;;16.60;64.70;;;;;;7552105;19;20065;-75
2023/03/22 10:44:53;;;;;;;7.68;4.13;;;16.80;64.90;;;;;;7597721;19;20053;-75
2023/03/22 10:47:36;;;;;;;5.93;4.03;;;16.90;63.30;;;;;;7590088;19;20022;-75
2023/03/22 10:50:30;;;;;;;6.38;3.80;;;17.00;62.70;;;;;;7587163;19;20029;-75
2023/03/22 10:53:05;;;;;;;5.50;3.63;;;17.10;63.20;;;;;;7583888;19;20098;-75
2023/03/22 10:55:42;;;;;;;8.63;4.40;;;17.20;62.50;;;;;;7566381;19;20097;-75
2023/03/22 10:58:16;;;;;;;5.57;2.90;;;17.30;62.30;;;;;;7594860;19;20782;-75
2023/03/22 11:00:55;;;;;;;8.80;4.13;;;17.30;62.20;;;;;;7605808;19;20033;-75
2023/03/22 11:03:42;;;;;;;6.07;3.63;;;17.30;60.60;;;;;;7601817;19;20053;-75
2023/03/22 11:06:23;;;;;;;6.40;2.72;;;17.40;61.50;;;;;;7601136;19;20018;-76
2023/03/22 11:09:00;;;;;;;4.80;2.35;;;17.50;60.80;;;;;;7604846;19;20475;-75
2023/03/22 11:11:44;;;;;;;8.85;2.65;;;17.60;59.40;;;;;;7602790;19;20070;-75
2023/03/22 11:14:35;;;;;;;6.65;2.83;;;17.80;58.00;;;;;;7623475;19;20019;-75
2023/03/22 11:17:13;;;;;;;4.75;2.42;;;17.90;56.90;;;;;;7600094;19;20672;-75
2023/03/22 11:20:08;;;;;;;7.03;2.47;;;17.80;57.40;;;;;;7589103;19;20022;-75
2023/03/22 11:22:46;;;;;;;3.22;1.80;;;18.00;55.60;;;;;;7595557;19;20030;-74
2023/03/22 11:25:31;;;;;;;3.35;2.15;;;18.10;55.30;;;;;;7607227;19;20017;-74
2023/03/22 11:28:03;;;;;;;3.65;2.25;;;18.40;56.00;;;;;;7609688;19;21046;-74
2023/03/22 11:30:37;;;;;;;2.75;1.65;;;18.40;54.90;;;;;;7601742;19;20052;-74
2023/03/22 11:33:16;;;;;;;2.90;1.67;;;18.50;56.10;;;;;;7605035;19;20344;-74
2023/03/22 11:35:57;;;;;;;3.40;2.10;;;18.80;54.90;;;;;;7602663;19;20022;-75
2023/03/22 11:38:42;;;;;;;2.78;1.60;;;19.00;52.20;;;;;;7599679;19;20491;-75
2023/03/22 11:41:24;;;;;;;4.45;1.85;;;19.50;51.80;;;;;;7602110;19;20097;-75
2023/03/22 11:44:01;;;;;;;3.88;1.70;;;20.20;52.50;;;;;;7593498;19;20015;-75
2023/03/22 11:46:35;;;;;;;6.85;2.17;;;20.60;49.50;;;;;;7583142;19;20022;-75
2023/03/22 11:49:13;;;;;;;5.55;1.95;;;21.10;50.90;;;;;;7590834;19;20040;-75
2023/03/22 11:51:45;;;;;;;2.38;1.45;;;21.70;49.00;;;;;;7589659;19;20021;-74
2023/03/22 11:54:35;;;;;;;4.70;1.95;;;22.30;47.70;;;;;;7593392;19;20559;-74
2023/03/22 11:57:15;;;;;;;3.72;1.90;;;22.70;46.70;;;;;;7574115;19;20018;-75
2023/03/22 12:00:02;;;;;;;2.63;1.50;;;23.00;45.50;;;;;;7587945;19;20049;-75
2023/03/22 12:02:44;;;;;;;3.67;1.55;;;22.60;45.30;;;;;;7579392;19;20015;-75
2023/03/22 12:05:42;;;;;;;3.28;1.90;;;23.00;45.30;;;;;;7586154;19;20959;-75
2023/03/22 12:08:37;;;;;;;2.25;1.65;;;23.00;44.70;;;;;;7586554;19;20010;-75
2023/03/22 12:11:33;;;;;;;2.60;1.80;;;22.80;45.20;;;;;;7583815;19;20022;-76
2023/03/22 12:14:42;;;;;;;2.83;1.50;;;23.10;43.90;;;;;;7589250;19;20411;-75
2023/03/22 12:17:23;;;;;;;2.60;1.52;;;23.50;44.10;;;;;;7571625;19;20019;-75
2023/03/22 12:20:20;;;;;;;2.97;1.77;;;23.60;43.00;;;;;;7574364;19;20042;-74
2023/03/22 12:22:54;;;;;;;2.70;1.52;;;23.50;44.30;;;;;;7576370;19;20019;-74
2023/03/22 12:25:33;;;;;;;2.13;1.70;;;23.90;42.30;;;;;;7570198;19;20017;-74
2023/03/22 12:28:10;;;;;;;3.40;1.80;;;23.90;40.50;;;;;;7580154;19;20467;-74
2023/03/22 12:30:47;;;;;;;2.80;1.25;;;23.80;41.20;;;;;;7541241;19;20019;-74
2023/03/22 12:33:23;;;;;;;3.88;1.70;;;23.90;42.40;;;;;;7549558;19;20097;-75
2023/03/22 12:36:02;;;;;;;2.40;1.38;;;24.20;42.20;;;;;;7542355;19;20019;-74
2023/03/22 12:38:41;;;;;;;2.50;1.63;;;24.40;40.20;;;;;;7536243;19;20021;-75
2023/03/22 12:41:35;;;;;;;2.63;1.65;;;24.30;42.00;;;;;;7559236;19;20014;-75
2023/03/22 12:44:47;;;;;;;;;;;25.00;39.90;;;;;;7557591;19;20026;-74
2023/03/22 12:47:47;;;;;;;6.57;2.10;;;25.60;40.40;;;;;;7567029;19;20379;-75
2023/03/22 12:50:24;;;;;;;5.63;2.05;;;25.40;38.40;;;;;;7568055;19;20066;-75
2023/03/22 12:52:57;;;;;;;4.22;2.00;;;24.90;38.90;;;;;;7546006;19;20532;-74
2023/03/22 12:55:33;;;;;;;3.30;2.00;;;25.10;40.10;;;;;;7529209;19;20022;-74
2023/03/22 12:58:07;;;;;;;2.90;1.60;;;25.40;38.60;;;;;;7566827;19;20062;-73
2023/03/22 13:00:44;;;;;;;2.78;2.00;;;25.90;39.10;;;;;;7567893;19;20041;-75
2023/03/22 13:03:16;;;;;;;2.58;1.75;;;25.70;38.40;;;;;;7558217;19;20018;-74
2023/03/22 13:06:00;;;;;;;3.05;1.80;;;26.20;39.00;;;;;;7554757;19;20653;-75
2023/03/22 13:09:15;;;;;;;2.97;1.85;;;26.50;38.00;;;;;;7548238;19;21345;-74
2023/03/22 13:12:14;;;;;;;4.20;2.38;;;26.30;37.70;;;;;;7539553;19;20007;-74
2023/03/22 13:14:51;;;;;;;2.80;1.80;;;26.80;37.10;;;;;;7531517;19;20010;-74
2023/03/22 13:17:24;;;;;;;3.28;1.55;;;26.00;37.40;;;;;;7505697;19;20019;-74
2023/03/22 13:20:01;;;;;;;3.00;1.63;;;26.00;39.80;;;;;;7540957;19;20039;-74
2023/03/22 13:22:36;;;;;;;2.45;1.70;;;26.40;37.90;;;;;;7500341;19;22808;-77
2023/03/22 13:25:27;;;;;;;2.17;1.85;;;26.20;37.90;;;;;;7550335;19;20355;-77
2023/03/22 13:28:21;;;;;;;3.22;1.80;;;26.40;37.20;;;;;;7563602;19;20053;-77
2023/03/22 13:30:56;;;;;;;4.80;2.30;;;26.40;36.70;;;;;;7564355;19;20018;-76
2023/03/22 13:33:33;;;;;;;1.85;1.50;;;27.00;35.90;;;;;;7575718;19;20028;-76
2023/03/22 13:36:23;;;;;;;2.30;2.00;;;26.80;35.50;;;;;;7577916;19;20530;-75
2023/03/22 13:38:58;;;;;;;3.60;1.60;;;26.80;35.70;;;;;;7564337;19;20379;-76
2023/03/22 13:41:34;;;;;;;3.85;1.70;;;26.30;36.10;;;;;;7566378;19;20552;-75
2023/03/22 13:44:34;;;;;;;2.70;1.80;;;26.20;36.20;;;;;;7569219;19;20082;-75
2023/03/22 13:47:28;;;;;;;2.25;1.40;;;26.10;35.50;;;;;;7576164;19;20206;-76
2023/03/22 13:50:15;;;;;;;2.08;1.63;;;26.80;36.20;;;;;;7577821;19;20018;-76
2023/03/22 13:53:06;;;;;;;2.10;1.60;;;27.30;35.20;;;;;;7547905;19;20638;-76
2023/03/22 13:55:56;;;;;;;6.78;1.50;;;28.00;34.50;;;;;;7569634;19;20014;-76
2023/03/22 13:58:47;;;;;;;2.80;1.92;;;27.40;34.10;;;;;;7065171;19;10000536;-76
2023/03/22 14:01:26;;;;;;;5.72;1.30;;;27.30;34.00;;;;;;7575841;19;20057;-77
2023/03/22 14:04:03;;;;;;;3.35;1.67;;;26.60;35.30;;;;;;7559365;19;20025;-76
2023/03/22 14:06:46;;;;;;;2.50;2.00;;;27.10;35.90;;;;;;7578930;19;20642;-76
2023/03/22 14:09:44;;;;;;;5.70;2.30;;;27.20;35.30;;;;;;7563839;19;20418;-76
2023/03/22 14:12:21;;;;;;;2.88;1.60;;;27.50;35.70;;;;;;7579508;19;20018;-76
2023/03/22 14:14:59;;;;;;;3.85;1.70;;;27.40;35.30;;;;;;7559592;19;20828;-76
2023/03/22 14:17:43;;;;;;;6.25;2.15;;;26.80;35.30;;;;;;7578200;19;20010;-76
2023/03/22 14:20:21;;;;;;;3.47;1.92;;;26.30;35.20;;;;;;7562120;19;20495;-76
2023/03/22 14:22:57;;;;;;;3.75;1.83;;;26.20;37.70;;;;;;7549178;19;20033;-77
2023/03/22 14:25:32;;;;;;;2.22;1.80;;;25.70;36.90;;;;;;7553508;19;20021;-76
2023/03/22 14:28:04;;;;;;;5.32;1.80;;;25.40;37.80;;;;;;7564830;19;20007;-76
2023/03/22 14:30:43;;;;;;;5.47;1.50;;;25.30;37.10;;;;;;7564065;19;20018;-76
2023/03/22 14:33:21;;;;;;;4.22;1.70;;;25.90;36.70;;;;;;7561470;19;20059;-76
2023/03/22 14:35:58;;;;;;;3.08;1.77;;;26.00;36.80;;;;;;7566164;19;20126;-76
2023/03/22 14:38:38;;;;;;;5.40;1.80;;;25.40;37.40;;;;;;7553580;19;20003;-76
2023/03/22 14:41:09;;;;;;;4.13;1.60;;;;;;;;;;7570747;19;20015;-76
2023/03/22 14:43:44;;;;;;;2.22;1.67;;;26.10;37.20;;;;;;7579830;19;20517;-76
2023/03/22 14:46:21;;;;;;;5.28;2.00;;;26.60;35.80;;;;;;7567959;19;20531;-76
2023/03/22 14:48:55;;;;;;;2.40;1.35;;;26.40;35.70;;;;;;7555806;19;20474;-75
2023/03/22 14:51:38;;;;;;;4.10;1.65;;;26.70;36.10;;;;;;7580193;19;20014;-76
2023/03/22 14:54:15;;;;;;;4.28;1.85;;;;;;;;;;7580011;19;20925;-74
2023/03/22 14:56:48;;;;;;;2.90;1.60;;;26.50;35.30;;;;;;7580626;19;20022;-74